Time;durP1;ratioP1;P1;durP2;ratioP2;P2;SDS_P1;SDS_P2;PMS_P1;PMS_P2;Temp;Humidity;BMP_temperature;BMP_pressure;BME280_temperature;BME280_humidity;BME280_pressure;Samples;Min_cycle;Max_cycle;Signal;HPM_P1;HPM_P2
2021/08/30 00:01:57;;;;;;;3.80;1.50;;;22.30;57.40;;;;;;5045195;28;20415;-54
2021/08/30 00:04:23;;;;;;;2.58;1.20;;;22.30;57.40;;;;;;5047839;28;20202;-57
2021/08/30 00:06:48;;;;;;;2.65;1.10;;;22.30;57.40;;;;;;5039771;28;20036;-55
2021/08/30 00:09:15;;;;;;;2.95;1.30;;;22.30;57.50;;;;;;5044704;28;20509;-48
2021/08/30 00:11:41;;;;;;;2.58;1.20;;;22.30;57.40;;;;;;5031155;28;20453;-58
2021/08/30 00:14:06;;;;;;;2.38;1.17;;;22.30;57.40;;;;;;5043487;28;20032;-58
2021/08/30 00:16:32;;;;;;;2.60;1.38;;;22.30;57.40;;;;;;5030052;28;20045;-55
2021/08/30 00:18:58;;;;;;;2.47;1.10;;;22.30;57.40;;;;;;5043590;28;20029;-54
2021/08/30 00:21:24;;;;;;;2.00;1.20;;;22.30;57.40;;;;;;5043530;28;20429;-55
2021/08/30 00:23:49;;;;;;;3.60;1.30;;;22.30;57.20;;;;;;5037507;28;20034;-57
2021/08/30 00:26:15;;;;;;;2.13;1.10;;;22.30;57.40;;;;;;5045594;28;20511;-59
2021/08/30 00:28:41;;;;;;;3.20;1.40;;;22.30;57.40;;;;;;5044344;28;20025;-57
2021/08/30 00:31:07;;;;;;;2.55;1.20;;;22.30;57.40;;;;;;5038049;28;20021;-57
2021/08/30 00:33:33;;;;;;;2.90;1.30;;;22.30;57.40;;;;;;5027789;28;20679;-57
2021/08/30 00:35:58;;;;;;;2.45;1.10;;;22.30;57.40;;;;;;5042432;28;20099;-54
2021/08/30 00:38:25;;;;;;;1.50;1.00;;;22.30;57.40;;;;;;5045396;28;20094;-49
2021/08/30 00:40:51;;;;;;;2.22;1.23;;;22.30;57.40;;;;;;5035598;28;20053;-56
2021/08/30 00:43:16;;;;;;;2.53;1.20;;;22.30;57.40;;;;;;5038570;28;20076;-58
2021/08/30 00:45:42;;;;;;;2.60;1.20;;;22.30;57.40;;;;;;5051074;28;20032;-57
2021/08/30 00:48:08;;;;;;;3.15;1.23;;;22.30;57.90;;;;;;5049123;28;20518;-58
2021/08/30 00:50:33;;;;;;;2.42;1.00;;;22.30;57.90;;;;;;5047140;28;20077;-59
2021/08/30 00:52:59;;;;;;;2.30;1.10;;;22.30;57.40;;;;;;5027331;28;20032;-58
2021/08/30 00:55:25;;;;;;;1.90;1.10;;;22.20;57.30;;;;;;5031698;28;20391;-55
2021/08/30 00:57:51;;;;;;;1.92;1.10;;;22.30;57.40;;;;;;5033382;28;20037;-59
2021/08/30 01:00:17;;;;;;;3.22;1.27;;;22.20;57.40;;;;;;5047610;28;20393;-56
2021/08/30 01:02:44;;;;;;;2.55;1.00;;;22.20;57.40;;;;;;5032772;28;20033;-59
2021/08/30 01:05:11;;;;;;;3.38;1.08;;;22.20;57.30;;;;;;5034426;28;20400;-57
2021/08/30 01:08:07;;;;;;;2.22;1.17;;;22.20;57.30;;;;;;5044911;28;20056;-59
2021/08/30 01:10:47;;;;;;;1.85;1.00;;;22.20;57.40;;;;;;5044139;28;20370;-59
2021/08/30 01:13:36;;;;;;;2.70;1.00;;;22.20;57.30;;;;;;5036157;28;20061;-56
2021/08/30 01:16:04;;;;;;;1.88;1.13;;;22.20;57.40;;;;;;5024025;28;20062;-56
2021/08/30 01:18:32;;;;;;;2.63;1.05;;;22.20;57.40;;;;;;5045806;28;20044;-57
2021/08/30 01:21:22;;;;;;;1.85;0.90;;;22.20;57.40;;;;;;5032524;28;20033;-59
2021/08/30 01:23:56;;;;;;;2.00;1.02;;;22.20;57.40;;;;;;5041748;28;20026;-52
2021/08/30 01:26:29;;;;;;;2.33;1.10;;;22.20;57.30;;;;;;5030304;28;20511;-59
2021/08/30 01:29:26;;;;;;;2.17;1.20;;;22.20;57.30;;;;;;5045216;28;20104;-57
2021/08/30 01:32:01;;;;;;;2.33;1.10;;;22.20;57.40;;;;;;5023628;28;20129;-58
2021/08/30 01:34:28;;;;;;;2.47;1.20;;;22.20;57.40;;;;;;5036261;28;20029;-56
2021/08/30 01:36:54;;;;;;;1.35;0.95;;;22.20;57.40;;;;;;5031878;28;20117;-56
2021/08/30 01:39:25;;;;;;;4.28;1.38;;;22.20;57.30;;;;;;5044275;28;20128;-51
2021/08/30 01:41:51;;;;;;;2.03;1.10;;;22.20;57.40;;;;;;5046582;28;20041;-58
2021/08/30 01:44:18;;;;;;;3.13;1.35;;;22.20;57.40;;;;;;5040023;28;20033;-56
2021/08/30 01:46:44;;;;;;;1.73;1.10;;;22.20;57.30;;;;;;5027156;28;20540;-60
2021/08/30 01:49:10;;;;;;;1.65;1.00;;;22.20;57.30;;;;;;5039153;28;20017;-52
2021/08/30 01:51:37;;;;;;;2.47;1.00;;;22.20;57.30;;;;;;5045270;28;20040;-59
2021/08/30 01:54:03;;;;;;;2.28;1.00;;;22.10;57.30;;;;;;5045519;28;20079;-57
2021/08/30 01:56:32;;;;;;;1.88;1.00;;;22.20;57.30;;;;;;5033858;28;20486;-54
2021/08/30 02:01:42;;;;;;;2.00;0.90;;;22.20;57.30;;;;;;5035475;28;20032;-59
2021/08/30 02:04:07;;;;;;;1.85;0.90;;;22.10;57.30;;;;;;5060581;28;20389;-56
2021/08/30 02:06:35;;;;;;;2.22;0.90;;;22.20;57.40;;;;;;5041180;28;20087;-52
2021/08/30 02:09:03;;;;;;;2.80;1.10;;;22.20;57.30;;;;;;5036899;28;20037;-57
2021/08/30 02:11:33;;;;;;;1.90;1.08;;;22.10;57.30;;;;;;5033077;28;20080;-60
2021/08/30 02:14:00;;;;;;;2.45;1.10;;;22.10;57.30;;;;;;5029659;28;20086;-55
2021/08/30 02:16:27;;;;;;;1.77;1.00;;;22.10;57.80;;;;;;5028863;28;20075;-59
2021/08/30 02:19:10;;;;;;;3.67;1.60;;;22.10;57.30;;;;;;5030256;28;20191;-58
2021/08/30 02:22:03;;;;;;;1.60;1.00;;;22.20;57.30;;;;;;5029218;28;20021;-54
2021/08/30 02:24:56;;;;;;;1.63;0.93;;;22.10;57.30;;;;;;5028325;28;20033;-58
2021/08/30 02:27:43;;;;;;;1.77;1.00;;;22.10;57.30;;;;;;5028371;28;20040;-60
2021/08/30 02:30:24;;;;;;;3.33;1.10;;;22.10;57.30;;;;;;5026968;28;20369;-54
2021/08/30 02:32:53;;;;;;;1.20;0.95;;;22.10;57.30;;;;;;5029686;28;20130;-54
2021/08/30 02:35:26;;;;;;;1.98;0.93;;;22.10;57.30;;;;;;5029707;28;20108;-56
2021/08/30 02:37:53;;;;;;;1.17;0.88;;;22.10;57.30;;;;;;5028997;28;20041;-58
2021/08/30 02:40:21;;;;;;;1.70;0.93;;;22.10;57.30;;;;;;5033652;28;20025;-53
2021/08/30 02:42:47;;;;;;;2.55;1.00;;;22.10;57.30;;;;;;5039398;28;20040;-53
2021/08/30 02:45:14;;;;;;;2.20;1.10;;;22.10;57.30;;;;;;5045814;28;20053;-53
2021/08/30 02:47:41;;;;;;;1.58;0.82;;;22.10;57.30;;;;;;5039672;28;20676;-57
2021/08/30 02:50:09;;;;;;;1.55;1.00;;;22.10;57.30;;;;;;5033656;28;20059;-54
2021/08/30 02:52:37;;;;;;;1.30;0.77;;;22.10;57.30;;;;;;5039509;28;21951;-53
2021/08/30 02:55:03;;;;;;;1.83;1.00;;;22.10;57.30;;;;;;5048228;28;20013;-57
2021/08/30 02:57:30;;;;;;;1.08;0.77;;;22.10;57.30;;;;;;5049114;28;20025;-52
2021/08/30 02:59:57;;;;;;;2.45;0.93;;;22.10;57.20;;;;;;5045389;28;20024;-58
2021/08/30 03:02:23;;;;;;;1.52;0.70;;;22.10;57.20;;;;;;5042318;28;20380;-58
2021/08/30 03:04:50;;;;;;;1.23;0.80;;;22.10;57.20;;;;;;5029862;28;20533;-58
2021/08/30 03:07:17;;;;;;;1.58;1.00;;;22.10;57.20;;;;;;5029453;28;20033;-59
2021/08/30 03:09:43;;;;;;;1.83;0.93;;;22.10;57.20;;;;;;5029818;28;20041;-58
2021/08/30 03:12:11;;;;;;;3.15;1.10;;;22.10;57.20;;;;;;5041515;28;20098;-60
2021/08/30 03:14:38;;;;;;;2.28;0.93;;;22.10;57.30;;;;;;5034597;28;20063;-51
2021/08/30 03:17:09;;;;;;;1.25;0.80;;;22.00;57.20;;;;;;5049352;28;20037;-57
2021/08/30 03:19:35;;;;;;;2.08;1.08;;;22.00;57.20;;;;;;5037467;28;20119;-55
2021/08/30 03:22:01;;;;;;;1.83;0.90;;;22.10;57.20;;;;;;5044361;28;20492;-58
2021/08/30 03:24:28;;;;;;;1.17;0.80;;;22.10;57.20;;;;;;5057260;28;20955;-57
2021/08/30 03:26:56;;;;;;;1.42;0.80;;;22.00;57.20;;;;;;5034575;28;20025;-60
2021/08/30 03:29:22;;;;;;;1.33;0.73;;;22.10;57.20;;;;;;5048995;28;20021;-58
2021/08/30 03:31:50;;;;;;;1.17;0.75;;;22.10;57.20;;;;;;5040101;28;20044;-59
2021/08/30 03:34:17;;;;;;;1.13;0.80;;;22.10;57.20;;;;;;5048650;28;20032;-54
2021/08/30 03:36:44;;;;;;;2.08;1.10;;;22.00;57.20;;;;;;5032043;28;20390;-59
2021/08/30 03:39:10;;;;;;;1.77;0.93;;;22.00;57.20;;;;;;5030692;28;20197;-56
2021/08/30 03:41:37;;;;;;;1.50;0.80;;;22.10;57.20;;;;;;5037280;28;20465;-51
2021/08/30 03:44:03;;;;;;;1.38;0.80;;;22.00;57.10;;;;;;5051750;28;20043;-57
2021/08/30 03:46:29;;;;;;;3.10;0.90;;;22.00;57.10;;;;;;5037660;28;20032;-58
2021/08/30 03:48:56;;;;;;;1.40;0.70;;;22.00;57.10;;;;;;5048601;28;20056;-49
2021/08/30 03:51:24;;;;;;;1.40;0.80;;;22.00;57.10;;;;;;5032817;28;20043;-58
2021/08/30 03:53:51;;;;;;;1.20;0.80;;;22.00;57.10;;;;;;5045961;28;20028;-50
2021/08/30 03:56:18;;;;;;;1.00;0.75;;;22.00;57.10;;;;;;5032638;28;20025;-58
2021/08/30 03:58:45;;;;;;;1.38;0.73;;;22.00;57.10;;;;;;5037126;28;20009;-54
2021/08/30 04:01:14;;;;;;;1.20;1.00;;;22.00;57.20;;;;;;5039689;28;20072;-55
2021/08/30 04:03:43;;;;;;;1.25;0.80;;;22.00;57.10;;;;;;5049029;28;20052;-58
2021/08/30 04:06:10;;;;;;;2.22;0.85;;;22.00;57.10;;;;;;5028299;28;20033;-52
2021/08/30 04:08:37;;;;;;;1.30;0.73;;;22.00;57.10;;;;;;5035544;28;20040;-58
2021/08/30 04:11:04;;;;;;;1.15;0.80;;;22.00;57.10;;;;;;5032536;28;20540;-60
2021/08/30 04:13:30;;;;;;;0.73;0.70;;;22.00;57.10;;;;;;5030380;28;20595;-59
2021/08/30 04:15:56;;;;;;;0.80;0.80;;;22.00;57.10;;;;;;5046579;28;20033;-57
2021/08/30 04:18:22;;;;;;;0.93;0.75;;;22.00;57.10;;;;;;5038454;28;20037;-59
2021/08/30 04:20:47;;;;;;;1.85;0.80;;;22.00;57.10;;;;;;5044919;28;20139;-57
2021/08/30 04:23:13;;;;;;;1.02;0.70;;;22.00;57.10;;;;;;5035643;28;20060;-59
2021/08/30 04:25:39;;;;;;;1.90;0.80;;;22.00;57.10;;;;;;5039746;28;20033;-57
2021/08/30 04:28:05;;;;;;;1.42;0.77;;;22.00;57.10;;;;;;5047735;28;20032;-58
2021/08/30 04:30:30;;;;;;;1.52;0.85;;;22.00;57.10;;;;;;5031454;28;20079;-55
2021/08/30 04:32:56;;;;;;;1.65;1.00;;;22.00;57.10;;;;;;5027952;28;20412;-51
2021/08/30 04:35:22;;;;;;;2.28;0.80;;;21.90;57.00;;;;;;5037812;28;20024;-57
2021/08/30 04:37:49;;;;;;;1.70;0.85;;;22.00;57.10;;;;;;5044127;28;20044;-57
2021/08/30 04:40:15;;;;;;;1.83;0.70;;;22.00;57.10;;;;;;5046221;28;20039;-55
2021/08/30 04:42:41;;;;;;;1.30;0.70;;;22.00;57.10;;;;;;5046720;28;20044;-54
2021/08/30 04:45:07;;;;;;;1.13;0.70;;;22.00;57.10;;;;;;5041746;28;20081;-55
2021/08/30 04:47:33;;;;;;;0.93;0.65;;;21.90;57.10;;;;;;5044489;28;20029;-58
2021/08/30 04:49:59;;;;;;;0.82;0.63;;;21.90;57.00;;;;;;5045862;28;20025;-55
2021/08/30 04:52:24;;;;;;;0.82;0.70;;;22.00;57.10;;;;;;5037936;28;20409;-57
2021/08/30 04:54:50;;;;;;;1.52;0.80;;;21.90;57.00;;;;;;5045398;28;20140;-56
2021/08/30 04:57:16;;;;;;;1.17;0.63;;;21.90;57.00;;;;;;5036653;28;20088;-59
2021/08/30 04:59:42;;;;;;;1.42;0.80;;;22.00;57.10;;;;;;5032497;28;20107;-56
2021/08/30 05:02:07;;;;;;;1.50;0.90;;;22.00;57.10;;;;;;5047991;28;20035;-50
2021/08/30 05:04:33;;;;;;;1.35;0.80;;;22.00;57.10;;;;;;5044555;28;20033;-57
2021/08/30 05:06:59;;;;;;;0.98;0.80;;;21.90;57.00;;;;;;5045604;28;20043;-55
2021/08/30 05:09:24;;;;;;;1.23;0.70;;;22.00;57.10;;;;;;5058998;28;20226;-59
2021/08/30 05:11:50;;;;;;;1.08;0.73;;;22.00;57.10;;;;;;5033230;28;20051;-55
2021/08/30 05:14:16;;;;;;;1.33;0.80;;;22.00;57.00;;;;;;5029105;28;20029;-55
2021/08/30 05:16:41;;;;;;;1.58;0.70;;;21.90;57.00;;;;;;5045081;28;20057;-59
2021/08/30 05:19:07;;;;;;;0.90;0.65;;;22.00;57.00;;;;;;5055747;28;20024;-58
2021/08/30 05:21:32;;;;;;;1.02;0.70;;;21.90;57.00;;;;;;5043273;28;20033;-54
2021/08/30 05:23:58;;;;;;;0.88;0.60;;;21.90;57.00;;;;;;5055692;28;20034;-59
2021/08/30 05:26:24;;;;;;;1.45;0.80;;;22.00;57.00;;;;;;5056261;28;20040;-50
2021/08/30 05:28:50;;;;;;;1.30;0.80;;;21.90;57.00;;;;;;5042066;28;20078;-59
2021/08/30 05:31:15;;;;;;;0.82;0.50;;;21.90;57.00;;;;;;5039915;28;20021;-50
2021/08/30 05:33:41;;;;;;;1.02;0.70;;;21.90;57.00;;;;;;5032699;28;20032;-58
2021/08/30 05:36:07;;;;;;;0.77;0.75;;;22.00;56.90;;;;;;5033364;28;20040;-57
2021/08/30 05:38:33;;;;;;;0.80;0.70;;;22.00;56.80;;;;;;5045004;28;20032;-52
2021/08/30 05:40:59;;;;;;;1.00;0.70;;;22.10;56.80;;;;;;5033073;28;20565;-57
2021/08/30 05:43:25;;;;;;;1.92;0.68;;;22.10;56.70;;;;;;5036518;28;20044;-55
2021/08/30 05:45:50;;;;;;;1.20;0.60;;;22.10;56.70;;;;;;5036678;28;20087;-59
2021/08/30 05:48:16;;;;;;;1.30;0.70;;;22.10;56.60;;;;;;5043862;28;20053;-58
2021/08/30 05:50:42;;;;;;;1.13;0.70;;;22.20;56.60;;;;;;5040288;28;20424;-55
2021/08/30 05:53:08;;;;;;;1.38;0.80;;;22.20;56.50;;;;;;5036294;28;20037;-52
2021/08/30 05:55:33;;;;;;;1.23;0.70;;;22.20;56.40;;;;;;5044559;28;20013;-55
2021/08/30 05:57:59;;;;;;;0.80;0.70;;;22.30;56.40;;;;;;5048361;28;20057;-49
2021/08/30 06:00:25;;;;;;;1.00;0.70;;;22.30;56.30;;;;;;5048359;28;20060;-54
2021/08/30 06:02:50;;;;;;;0.65;0.60;;;22.30;56.30;;;;;;5037023;28;20045;-53
2021/08/30 06:05:16;;;;;;;1.25;0.80;;;22.40;56.20;;;;;;5049575;28;20103;-58
2021/08/30 06:07:42;;;;;;;1.58;0.95;;;22.40;56.60;;;;;;5049799;28;20029;-51
2021/08/30 06:10:08;;;;;;;1.45;0.68;;;22.40;56.10;;;;;;5042635;28;20096;-53
2021/08/30 06:12:35;;;;;;;0.98;0.70;;;22.40;56.00;;;;;;5045262;28;20040;-50
2021/08/30 06:15:01;;;;;;;0.90;0.60;;;22.50;56.00;;;;;;5046931;28;20028;-53
2021/08/30 06:17:26;;;;;;;1.60;0.80;;;22.50;55.90;;;;;;5041704;28;20033;-59
2021/08/30 06:19:52;;;;;;;1.27;0.77;;;22.50;55.90;;;;;;5042338;28;20029;-60
2021/08/30 06:22:17;;;;;;;1.42;0.80;;;22.50;55.80;;;;;;5044963;28;20033;-50
2021/08/30 06:24:47;;;;;;;1.05;0.80;;;22.50;55.80;;;;;;5037995;28;20395;-59
2021/08/30 06:27:13;;;;;;;;;;;22.50;55.70;;;;;;5042720;28;20037;-59
2021/08/30 06:29:39;;;;;;;1.35;0.85;;;22.60;55.70;;;;;;5034916;28;19913;-54
2021/08/30 06:32:05;;;;;;;1.10;0.80;;;22.60;55.60;;;;;;5032614;28;20079;-54
2021/08/30 06:34:31;;;;;;;1.13;0.70;;;22.60;55.60;;;;;;5041592;28;20087;-54
2021/08/30 06:36:56;;;;;;;1.02;0.80;;;22.60;55.50;;;;;;5038259;28;20037;-58
2021/08/30 06:39:22;;;;;;;0.60;0.52;;;22.70;55.50;;;;;;5058605;28;20040;-58
2021/08/30 06:41:48;;;;;;;1.63;0.70;;;22.70;55.50;;;;;;5044964;28;20667;-57
2021/08/30 06:44:13;;;;;;;1.00;0.70;;;22.80;55.50;;;;;;5049258;28;20055;-56
2021/08/30 06:46:39;;;;;;;1.70;0.90;;;22.70;55.40;;;;;;5058229;28;20099;-54
2021/08/30 06:49:05;;;;;;;1.10;0.70;;;22.80;55.40;;;;;;5049013;28;20049;-57
2021/08/30 06:51:30;;;;;;;1.08;0.77;;;22.80;55.30;;;;;;5045312;28;20021;-56
2021/08/30 06:53:56;;;;;;;1.08;0.80;;;22.80;55.30;;;;;;5056750;28;20068;-58
2021/08/30 06:56:22;;;;;;;1.35;0.80;;;22.80;55.20;;;;;;5053551;28;20086;-54
2021/08/30 06:58:48;;;;;;;1.75;0.80;;;22.80;55.20;;;;;;5052691;28;20112;-56
2021/08/30 07:01:14;;;;;;;1.58;0.77;;;22.90;55.20;;;;;;5043314;28;20119;-59
2021/08/30 07:03:40;;;;;;;1.95;0.80;;;22.90;55.10;;;;;;5056157;28;20032;-59
2021/08/30 07:06:05;;;;;;;1.35;0.70;;;22.90;55.10;;;;;;5049264;28;20030;-55
2021/08/30 07:08:31;;;;;;;0.70;0.70;;;22.90;55.60;;;;;;5042234;28;20048;-53
2021/08/30 07:10:57;;;;;;;0.65;0.57;;;23.00;55.10;;;;;;5056647;28;20469;-56
2021/08/30 07:13:22;;;;;;;1.08;0.80;;;23.00;55.00;;;;;;5049211;28;20037;-59
2021/08/30 07:15:48;;;;;;;1.27;0.60;;;22.90;54.90;;;;;;5039856;28;20150;-58
2021/08/30 07:18:15;;;;;;;0.88;0.70;;;23.00;55.00;;;;;;5041964;28;20067;-58
2021/08/30 07:20:41;;;;;;;1.30;0.90;;;22.90;55.00;;;;;;5042352;28;20075;-54
2021/08/30 07:23:07;;;;;;;1.17;0.80;;;23.00;55.00;;;;;;5049638;28;20044;-57
2021/08/30 07:25:33;;;;;;;1.05;0.63;;;23.00;54.90;;;;;;5046943;28;20028;-58
2021/08/30 07:27:59;;;;;;;0.95;0.70;;;23.10;54.90;;;;;;5049319;28;20025;-60
2021/08/30 07:30:25;;;;;;;0.70;0.70;;;23.00;54.90;;;;;;5038424;28;20029;-54
2021/08/30 07:32:50;;;;;;;1.05;0.80;;;23.10;54.80;;;;;;5030437;28;20037;-57
2021/08/30 07:35:16;;;;;;;0.65;0.50;;;23.10;54.80;;;;;;5044174;28;20114;-58
2021/08/30 07:37:42;;;;;;;1.05;0.70;;;23.10;54.80;;;;;;5037284;28;20397;-59
2021/08/30 07:40:09;;;;;;;1.35;0.65;;;23.10;54.80;;;;;;5045440;28;20036;-58
2021/08/30 07:42:35;;;;;;;0.98;0.60;;;23.10;54.80;;;;;;5037405;28;20048;-60
2021/08/30 07:45:00;;;;;;;0.60;0.50;;;23.10;54.80;;;;;;5056320;28;20497;-57
2021/08/30 07:47:26;;;;;;;0.80;0.60;;;23.10;54.70;;;;;;5041706;28;20029;-58
2021/08/30 07:49:53;;;;;;;0.85;0.60;;;23.20;54.70;;;;;;5037984;28;20029;-59
2021/08/30 07:52:20;;;;;;;0.95;0.77;;;23.20;54.70;;;;;;5049386;28;20102;-59
2021/08/30 07:54:46;;;;;;;0.82;0.70;;;23.20;54.60;;;;;;5044507;28;20323;-58
2021/08/30 07:57:12;;;;;;;0.90;0.70;;;23.20;54.70;;;;;;5041166;28;20043;-57
2021/08/30 07:59:37;;;;;;;1.23;0.75;;;23.20;54.70;;;;;;5045483;28;20120;-60
2021/08/30 08:02:03;;;;;;;1.40;0.90;;;23.20;54.70;;;;;;5050358;28;20033;-59
2021/08/30 08:04:29;;;;;;;0.70;0.70;;;23.30;54.70;;;;;;5046183;28;20036;-58
2021/08/30 08:06:54;;;;;;;1.27;0.80;;;23.30;54.60;;;;;;5054824;28;20033;-56
2021/08/30 08:09:20;;;;;;;1.88;0.80;;;23.30;54.60;;;;;;5054574;28;20025;-58
2021/08/30 08:11:46;;;;;;;1.48;0.85;;;23.30;54.50;;;;;;5051194;28;20026;-54
2021/08/30 08:14:12;;;;;;;1.30;0.80;;;23.30;54.40;;;;;;5046159;28;20418;-58
2021/08/30 08:16:38;;;;;;;1.48;0.90;;;23.30;54.40;;;;;;5056693;28;20017;-55
2021/08/30 08:19:03;;;;;;;1.42;0.73;;;23.40;54.40;;;;;;5058547;28;20116;-57
2021/08/30 08:21:30;;;;;;;1.35;0.70;;;23.40;54.40;;;;;;5062413;28;20032;-56
2021/08/30 08:23:55;;;;;;;0.77;0.70;;;23.40;54.40;;;;;;5050963;28;20085;-58
2021/08/30 08:26:21;;;;;;;1.88;0.77;;;23.40;54.30;;;;;;5058003;28;20067;-55
2021/08/30 08:28:47;;;;;;;1.23;0.70;;;23.40;54.30;;;;;;5056607;28;20353;-52
2021/08/30 08:31:13;;;;;;;1.20;0.70;;;23.40;54.30;;;;;;5055983;28;20219;-58
2021/08/30 08:33:38;;;;;;;1.23;0.80;;;23.40;54.30;;;;;;5049835;28;20051;-59
2021/08/30 08:36:04;;;;;;;1.15;0.80;;;23.40;54.30;;;;;;5053645;28;20574;-60
2021/08/30 08:38:30;;;;;;;0.77;0.70;;;23.40;54.40;;;;;;5046486;28;20040;-52
2021/08/30 08:40:56;;;;;;;1.13;0.80;;;23.40;54.30;;;;;;5049939;28;20370;-53
2021/08/30 08:43:22;;;;;;;0.80;0.70;;;23.40;54.20;;;;;;5052206;28;20036;-56
2021/08/30 08:45:49;;;;;;;1.00;0.70;;;23.50;54.20;;;;;;5050578;28;20025;-52
2021/08/30 08:48:16;;;;;;;1.90;0.80;;;23.50;54.20;;;;;;5041526;28;20057;-60
2021/08/30 08:50:44;;;;;;;0.88;0.70;;;23.50;54.20;;;;;;5047705;28;20678;-57
2021/08/30 08:53:10;;;;;;;1.00;0.60;;;23.50;54.20;;;;;;5044501;28;20078;-55
2021/08/30 08:55:36;;;;;;;0.98;0.68;;;23.50;54.10;;;;;;5046558;28;20050;-58
2021/08/30 08:58:13;;;;;;;0.93;0.70;;;23.50;54.10;;;;;;5044930;28;20040;-59
2021/08/30 09:00:41;;;;;;;1.10;0.70;;;23.50;54.60;;;;;;5048857;28;20112;-57
2021/08/30 09:03:20;;;;;;;0.80;0.70;;;23.50;54.10;;;;;;5046244;28;20041;-59
2021/08/30 09:05:58;;;;;;;0.60;0.57;;;23.50;54.10;;;;;;5048996;28;20020;-59
2021/08/30 09:08:38;;;;;;;0.60;0.60;;;23.60;54.10;;;;;;5048237;28;20055;-58
2021/08/30 09:11:19;;;;;;;0.60;0.60;;;23.50;54.10;;;;;;5050390;28;20090;-60
2021/08/30 09:13:56;;;;;;;0.82;0.70;;;23.50;54.10;;;;;;5043697;28;20458;-60
2021/08/30 09:16:24;;;;;;;0.77;0.60;;;23.60;54.20;;;;;;5019711;28;20025;-58
2021/08/30 09:18:50;;;;;;;0.80;0.63;;;23.50;54.10;;;;;;5015822;28;20052;-56
2021/08/30 09:21:17;;;;;;;0.60;0.60;;;23.60;54.20;;;;;;5015609;28;20123;-58
2021/08/30 09:23:44;;;;;;;1.33;0.80;;;23.60;54.20;;;;;;5014479;28;20030;-58
2021/08/30 09:26:18;;;;;;;0.98;0.60;;;23.60;54.10;;;;;;5016927;28;20029;-59
2021/08/30 09:28:51;;;;;;;0.70;0.50;;;23.60;54.10;;;;;;5016579;28;20180;-55
2021/08/30 09:31:17;;;;;;;0.85;0.70;;;23.60;54.10;;;;;;5013405;28;20057;-58
2021/08/30 09:33:52;;;;;;;0.75;0.70;;;23.60;54.10;;;;;;5023550;28;20068;-57
2021/08/30 09:36:18;;;;;;;1.98;0.60;;;23.60;54.10;;;;;;5011134;28;20041;-59
2021/08/30 09:38:50;;;;;;;1.15;0.70;;;23.60;54.10;;;;;;5015056;28;20338;-62
2021/08/30 09:41:15;;;;;;;0.88;0.52;;;23.60;54.10;;;;;;5023437;28;20398;-59
2021/08/30 09:43:41;;;;;;;1.27;0.60;;;23.60;54.20;;;;;;5019218;28;20077;-58
2021/08/30 09:46:08;;;;;;;0.73;0.60;;;23.60;54.10;;;;;;5022065;28;20045;-61
2021/08/30 09:48:34;;;;;;;2.35;0.60;;;23.60;54.20;;;;;;5013988;28;20070;-60
2021/08/30 09:51:05;;;;;;;0.90;0.57;;;23.70;54.20;;;;;;5015019;28;20061;-59
2021/08/30 09:53:34;;;;;;;1.10;0.70;;;23.70;54.10;;;;;;5023041;28;20028;-59
2021/08/30 09:56:00;;;;;;;0.95;0.77;;;23.70;54.00;;;;;;5019938;28;20030;-58
2021/08/30 09:58:27;;;;;;;1.30;0.70;;;23.70;54.00;;;;;;5018214;28;20029;-57
2021/08/30 10:00:59;;;;;;;0.93;0.60;;;23.70;53.90;;;;;;5024154;28;20033;-58
2021/08/30 10:03:28;;;;;;;0.63;0.60;;;23.70;53.90;;;;;;5016321;28;20045;-59
2021/08/30 10:05:55;;;;;;;0.90;0.50;;;23.70;54.00;;;;;;5019408;28;20518;-49
2021/08/30 10:08:22;;;;;;;0.95;0.63;;;23.70;54.00;;;;;;5020862;28;20124;-54
2021/08/30 10:10:49;;;;;;;1.02;0.60;;;23.70;54.00;;;;;;5008343;28;20038;-57
2021/08/30 10:13:16;;;;;;;2.58;0.70;;;23.70;54.00;;;;;;5024150;28;20036;-59
2021/08/30 10:15:42;;;;;;;0.50;0.50;;;23.70;54.00;;;;;;5038983;28;20044;-58
2021/08/30 10:18:10;;;;;;;0.50;0.40;;;23.80;54.10;;;;;;5037729;28;20049;-58
2021/08/30 10:20:40;;;;;;;0.73;0.57;;;23.70;54.20;;;;;;5033422;28;20029;-60
2021/08/30 10:23:10;;;;;;;1.10;0.70;;;23.80;54.10;;;;;;5031720;28;20045;-56
2021/08/30 10:25:38;;;;;;;0.57;0.57;;;23.80;53.90;;;;;;5043039;28;20047;-57
2021/08/30 10:28:09;;;;;;;0.82;0.50;;;23.80;54.00;;;;;;5042274;28;20033;-57
2021/08/30 10:30:37;;;;;;;1.13;0.68;;;23.90;54.00;;;;;;5038588;28;20067;-57
2021/08/30 10:33:06;;;;;;;0.80;0.60;;;23.90;53.90;;;;;;5037481;28;20057;-58
2021/08/30 10:35:35;;;;;;;0.88;0.60;;;23.90;53.90;;;;;;5033911;28;20396;-57
2021/08/30 10:38:04;;;;;;;1.25;0.70;;;23.90;54.00;;;;;;5038332;28;20516;-56
2021/08/30 10:40:38;;;;;;;1.15;0.70;;;23.90;54.10;;;;;;5047504;28;20037;-59
2021/08/30 10:43:10;;;;;;;0.77;0.60;;;23.90;54.10;;;;;;5047465;28;20131;-57
2021/08/30 10:45:42;;;;;;;1.88;0.68;;;23.90;54.00;;;;;;5043310;28;20029;-52
2021/08/30 10:48:14;;;;;;;0.88;0.60;;;23.90;54.00;;;;;;5039197;28;20478;-59
2021/08/30 10:50:49;;;;;;;1.55;0.77;;;23.90;53.80;;;;;;5048986;28;20051;-59
2021/08/30 10:53:24;;;;;;;0.60;0.60;;;23.90;53.80;;;;;;5047511;28;20026;-58
2021/08/30 10:55:54;;;;;;;0.85;0.60;;;24.00;53.80;;;;;;5041960;28;20020;-56
2021/08/30 10:58:23;;;;;;;1.08;0.60;;;24.00;54.00;;;;;;5046947;28;20029;-58
2021/08/30 11:00:50;;;;;;;0.77;0.60;;;24.00;54.00;;;;;;5046378;28;20022;-57
2021/08/30 11:03:31;;;;;;;0.90;0.70;;;24.00;53.90;;;;;;5041910;28;20472;-55
2021/08/30 11:06:06;;;;;;;0.93;0.50;;;24.00;53.80;;;;;;5037923;28;20024;-57
2021/08/30 11:08:32;;;;;;;1.35;0.70;;;24.10;53.80;;;;;;5055826;28;20040;-57
2021/08/30 11:11:18;;;;;;;0.77;0.60;;;24.00;53.70;;;;;;5040705;28;20087;-54
2021/08/30 11:14:06;;;;;;;1.52;0.70;;;24.10;53.80;;;;;;5033796;28;20038;-53
2021/08/30 11:16:34;;;;;;;0.57;0.50;;;24.10;53.70;;;;;;5047988;28;20513;-57
2021/08/30 11:19:10;;;;;;;1.80;0.65;;;24.10;53.70;;;;;;5039336;28;20116;-57
2021/08/30 11:21:57;;;;;;;0.75;0.60;;;24.10;53.70;;;;;;5038806;28;20127;-57
2021/08/30 11:24:35;;;;;;;1.25;0.60;;;24.10;53.60;;;;;;5047178;28;20541;-57
2021/08/30 11:27:20;;;;;;;1.05;0.60;;;24.10;53.60;;;;;;5044309;28;20107;-57
2021/08/30 11:29:51;;;;;;;0.93;0.65;;;24.10;53.60;;;;;;5034488;28;20876;-58
2021/08/30 11:32:21;;;;;;;1.35;0.60;;;24.10;53.60;;;;;;5046702;28;20036;-51
2021/08/30 11:34:48;;;;;;;1.02;0.68;;;24.10;53.60;;;;;;5038227;28;20126;-56
2021/08/30 11:37:17;;;;;;;1.48;0.70;;;24.10;53.60;;;;;;5054617;28;20036;-58
2021/08/30 11:39:47;;;;;;;1.02;0.63;;;24.10;53.60;;;;;;5051814;28;20025;-54
2021/08/30 11:42:15;;;;;;;0.80;0.60;;;24.10;53.60;;;;;;5042302;28;20041;-55
2021/08/30 11:44:42;;;;;;;1.10;0.60;;;24.10;53.60;;;;;;5044363;28;20083;-59
2021/08/30 11:47:11;;;;;;;1.17;0.70;;;24.10;53.60;;;;;;5040546;28;20032;-53
2021/08/30 11:49:43;;;;;;;1.23;0.60;;;24.10;53.50;;;;;;5040856;28;20021;-53
2021/08/30 11:52:10;;;;;;;0.88;0.55;;;24.10;53.60;;;;;;5042963;28;20267;-57
2021/08/30 11:54:39;;;;;;;1.20;0.63;;;24.10;53.50;;;;;;5035934;28;20029;-53
2021/08/30 11:57:08;;;;;;;0.85;0.63;;;24.10;53.50;;;;;;5044153;28;20029;-52
2021/08/30 11:59:35;;;;;;;0.88;0.60;;;24.10;53.50;;;;;;5043846;28;20036;-55
2021/08/30 12:02:02;;;;;;;1.58;0.77;;;24.10;53.40;;;;;;5033305;28;20033;-58
2021/08/30 12:04:30;;;;;;;1.02;0.70;;;24.20;54.00;;;;;;5044745;28;20037;-56
2021/08/30 12:07:00;;;;;;;1.38;0.70;;;24.10;53.40;;;;;;5041101;28;20059;-57
2021/08/30 12:09:47;;;;;;;0.80;0.70;;;24.20;53.50;;;;;;5037593;28;20064;-54
2021/08/30 12:12:33;;;;;;;1.98;0.80;;;24.20;53.50;;;;;;5021287;28;20037;-58
2021/08/30 12:15:26;;;;;;;1.00;0.60;;;24.20;54.10;;;;;;5038414;28;20138;-60
2021/08/30 12:17:56;;;;;;;0.98;0.60;;;24.10;53.50;;;;;;5039629;28;20029;-57
2021/08/30 12:20:26;;;;;;;1.27;0.68;;;24.20;53.60;;;;;;5043544;28;20120;-53
2021/08/30 12:22:58;;;;;;;0.80;0.60;;;24.20;53.60;;;;;;5041356;28;20037;-56
2021/08/30 12:25:25;;;;;;;2.45;0.60;;;24.20;53.50;;;;;;5043859;28;20029;-55
2021/08/30 12:27:53;;;;;;;0.65;0.60;;;24.20;53.50;;;;;;5034704;28;20709;-58
2021/08/30 12:30:27;;;;;;;1.40;0.80;;;24.20;53.40;;;;;;5036681;28;20404;-56
2021/08/30 12:32:59;;;;;;;1.20;0.77;;;24.30;53.50;;;;;;5034425;28;20048;-56
2021/08/30 12:35:31;;;;;;;0.60;0.50;;;24.20;53.40;;;;;;5040266;28;20772;-53
2021/08/30 12:38:07;;;;;;;1.05;0.65;;;24.20;53.50;;;;;;5045999;28;20036;-59
2021/08/30 12:40:35;;;;;;;1.33;0.70;;;24.20;53.40;;;;;;5042144;28;20456;-58
2021/08/30 12:43:01;;;;;;;0.98;0.70;;;24.20;53.40;;;;;;5036306;28;20041;-55
2021/08/30 12:45:27;;;;;;;0.80;0.70;;;24.30;53.50;;;;;;5041793;28;20018;-58
2021/08/30 12:47:52;;;;;;;0.70;0.50;;;24.30;53.40;;;;;;5037771;28;20120;-57
2021/08/30 12:50:19;;;;;;;1.33;0.60;;;24.30;53.40;;;;;;5042572;28;20025;-54
2021/08/30 12:52:45;;;;;;;0.90;0.68;;;24.30;53.40;;;;;;5039117;28;20433;-59
2021/08/30 12:55:11;;;;;;;0.57;0.40;;;24.30;53.40;;;;;;5034631;28;20112;-58
2021/08/30 12:57:37;;;;;;;0.60;0.60;;;24.30;53.50;;;;;;5037231;28;20040;-52